Aviation Digital Data Service (ADDS)

Output produced by METARs form (1108 UTC 07 December 2022)
found at http://www.aviationweather.gov/metar/data/
 
Forecast for: AMD
Text: TAF AMD RJFR 070724Z 0707/0812 27015KT 9999 FEW030
Forecast period: 0700 UTC 07 December 2022 to 1200 UTC 08 December 2022
Forecast type: FROM: standard forecast or significant change
Winds: from the W (270 degrees) at 17 MPH (15 knots; 7.7 m/s)
Visibility: 6 or more miles (10+ km)
Ceiling: at least 12,000 feet AGL
Clouds: few clouds at 3000 feet AGL
Weather: no significant weather forecast for this period
Text: TEMPO 0707/0709 27017G28KT
Forecast period: 0700 to 0900 UTC 07 December 2022
Forecast type: TEMPORARY: The following changes expected for less than half the time period
Winds: from the W (270 degrees) at 20 MPH (17 knots; 8.7 m/s)
gusting to 32 MPH (28 knots; 14.4 m/s)
Visibility: missing
Ceiling: unknown
Clouds: missing
Weather: no significant weather forecast for this period